Time;durP1;ratioP1;P1;durP2;ratioP2;P2;SDS_P1;SDS_P2;PMS_P1;PMS_P2;Temp;Humidity;BMP_temperature;BMP_pressure;BME280_temperature;BME280_humidity;BME280_pressure;Samples;Min_cycle;Max_cycle;Signal;HPM_P1;HPM_P2
2021/07/13 00:01:56;;;;;;;3.63;3.33;;;19.60;99.90;;;;;;5049532;28;20628;-66
2021/07/13 00:04:24;;;;;;;3.33;3.03;;;19.50;99.90;;;;;;5049472;28;20296;-66
2021/07/13 00:06:51;;;;;;;3.15;2.95;;;19.50;99.90;;;;;;5049122;28;20630;-66
2021/07/13 00:09:19;;;;;;;3.88;3.58;;;19.40;99.90;;;;;;5049147;28;20267;-66
2021/07/13 00:11:47;;;;;;;3.85;3.00;;;19.40;99.90;;;;;;5049235;28;20209;-66
2021/07/13 00:14:14;;;;;;;3.65;3.35;;;19.40;99.90;;;;;;5048722;28;20214;-66
2021/07/13 00:16:41;;;;;;;3.33;3.03;;;19.30;99.90;;;;;;5048762;28;20252;-66
2021/07/13 00:19:08;;;;;;;3.25;2.83;;;19.30;99.90;;;;;;5047757;28;20682;-66
2021/07/13 00:21:36;;;;;;;2.55;2.35;;;19.30;99.90;;;;;;5048858;28;20300;-66
2021/07/13 00:24:03;;;;;;;3.13;2.60;;;19.30;99.90;;;;;;5049176;28;20543;-66
2021/07/13 00:26:30;;;;;;;3.65;2.90;;;19.30;99.90;;;;;;5048332;28;20205;-66
2021/07/13 00:28:57;;;;;;;4.15;2.40;;;19.20;99.90;;;;;;5048527;28;20292;-66
2021/07/13 00:31:24;;;;;;;2.45;2.25;;;19.20;99.90;;;;;;5048506;28;20317;-66
2021/07/13 00:33:51;;;;;;;1.70;1.60;;;19.10;99.90;;;;;;5048898;28;20585;-66
2021/07/13 00:36:18;;;;;;;2.88;1.73;;;19.10;99.90;;;;;;5047921;28;20236;-66
2021/07/13 00:38:46;;;;;;;2.33;2.20;;;19.10;99.90;;;;;;5048847;28;20221;-66
2021/07/13 00:41:13;;;;;;;1.83;1.70;;;19.10;99.90;;;;;;5048104;28;20217;-66
2021/07/13 00:43:39;;;;;;;3.28;2.15;;;19.10;99.90;;;;;;5039002;28;21031;-66
2021/07/13 00:46:06;;;;;;;1.98;1.75;;;19.00;99.90;;;;;;5033711;28;20220;-66
2021/07/13 00:48:33;;;;;;;2.50;2.22;;;19.00;99.90;;;;;;5048373;28;20296;-66
2021/07/13 00:51:03;;;;;;;3.08;1.80;;;19.00;99.90;;;;;;5048328;28;20208;-66
2021/07/13 00:53:30;;;;;;;2.65;2.45;;;19.00;99.90;;;;;;5048474;28;20205;-66
2021/07/13 00:55:58;;;;;;;2.60;1.90;;;19.00;99.90;;;;;;5048149;28;20710;-66
2021/07/13 00:58:25;;;;;;;2.38;2.17;;;19.00;99.90;;;;;;5048259;28;20207;-66
2021/07/13 01:00:53;;;;;;;1.90;1.80;;;18.90;99.90;;;;;;5048457;28;20300;-66
2021/07/13 01:03:20;;;;;;;2.15;1.50;;;18.90;99.90;;;;;;5047425;28;20215;-66
2021/07/13 01:05:49;;;;;;;1.60;1.50;;;18.90;99.90;;;;;;5047745;28;20239;-66
2021/07/13 01:08:34;;;;;;;1.70;1.60;;;18.90;99.90;;;;;;5047787;28;20219;-66
2021/07/13 01:11:12;;;;;;;1.70;1.60;;;18.90;99.90;;;;;;5048014;28;20213;-66
2021/07/13 01:13:44;;;;;;;3.67;2.10;;;18.80;99.90;;;;;;5046906;28;20304;-66
2021/07/13 01:16:15;;;;;;;2.05;1.85;;;18.80;99.90;;;;;;5047222;28;20225;-66
2021/07/13 01:18:47;;;;;;;2.20;2.10;;;18.80;99.90;;;;;;5047867;28;20618;-66
2021/07/13 01:21:38;;;;;;;1.92;1.83;;;18.70;99.90;;;;;;5047223;28;20220;-66
2021/07/13 01:24:56;;;;;;;2.40;2.28;;;18.70;99.90;;;;;;5047662;28;20206;-66
2021/07/13 01:27:59;;;;;;;2.22;1.67;;;18.70;99.90;;;;;;5015111;28;20229;-66
2021/07/13 01:30:29;;;;;;;2.28;2.17;;;18.60;99.90;;;;;;5040135;28;20205;-66
2021/07/13 01:32:59;;;;;;;3.50;2.55;;;18.70;99.90;;;;;;5047578;28;20205;-66
2021/07/13 01:35:32;;;;;;;3.95;2.28;;;18.70;99.90;;;;;;5047107;28;20222;-66
2021/07/13 01:38:01;;;;;;;3.15;2.95;;;18.70;99.90;;;;;;5046975;28;20304;-66
2021/07/13 01:40:30;;;;;;;3.80;3.20;;;18.60;99.90;;;;;;5047535;28;20208;-66
2021/07/13 01:43:00;;;;;;;3.83;3.33;;;18.60;99.90;;;;;;5045522;28;20197;-66
2021/07/13 01:45:29;;;;;;;3.80;3.50;;;18.60;99.90;;;;;;5046823;28;20277;-66
2021/07/13 01:47:57;;;;;;;3.75;3.55;;;18.50;99.90;;;;;;5027419;28;20213;-66
2021/07/13 01:50:24;;;;;;;4.03;3.72;;;18.50;99.90;;;;;;5027516;28;20285;-66
2021/07/13 01:52:52;;;;;;;4.75;3.90;;;18.50;99.90;;;;;;5027610;28;20202;-66
2021/07/13 01:55:19;;;;;;;4.72;4.38;;;18.50;99.90;;;;;;5041332;28;20287;-66
2021/07/13 01:57:46;;;;;;;4.85;4.45;;;18.50;99.90;;;;;;5047318;28;20674;-66
2021/07/13 02:00:15;;;;;;;7.22;4.15;;;18.50;99.90;;;;;;5035520;28;20229;-66
2021/07/13 02:02:44;;;;;;;5.05;4.38;;;18.50;99.90;;;;;;5046349;28;20201;-66
2021/07/13 02:05:12;;;;;;;4.80;4.00;;;18.50;99.90;;;;;;5046519;28;20201;-66
2021/07/13 02:07:42;;;;;;;3.75;3.22;;;18.40;99.90;;;;;;5047126;28;20215;-66
2021/07/13 02:10:11;;;;;;;3.20;3.00;;;18.40;99.90;;;;;;5047220;28;20251;-66
2021/07/13 02:12:40;;;;;;;2.83;2.60;;;18.30;99.90;;;;;;5046742;28;20210;-66
2021/07/13 02:15:08;;;;;;;4.75;2.80;;;18.30;99.90;;;;;;5046638;28;20209;-66
2021/07/13 02:17:36;;;;;;;2.85;2.65;;;18.30;99.90;;;;;;5047134;28;20301;-66
2021/07/13 02:20:07;;;;;;;3.00;2.17;;;18.20;99.90;;;;;;5047292;28;20224;-66
2021/07/13 02:22:34;;;;;;;3.33;2.65;;;18.20;99.90;;;;;;5047133;28;20223;-66
2021/07/13 02:25:01;;;;;;;2.67;2.50;;;18.20;99.90;;;;;;5046817;28;20204;-66
2021/07/13 02:27:30;;;;;;;3.05;2.80;;;18.20;99.90;;;;;;5046821;28;20663;-66
2021/07/13 02:29:59;;;;;;;3.08;2.60;;;18.20;99.90;;;;;;5046824;28;20208;-66
2021/07/13 02:32:31;;;;;;;2.72;2.00;;;18.20;99.90;;;;;;5047331;28;20259;-66
2021/07/13 02:35:00;;;;;;;4.00;2.22;;;18.10;99.90;;;;;;5046890;28;20324;-66
2021/07/13 02:37:29;;;;;;;2.20;2.00;;;18.10;99.90;;;;;;5046773;28;20225;-66
2021/07/13 02:39:56;;;;;;;2.92;1.95;;;18.10;99.90;;;;;;5046997;28;20206;-65
2021/07/13 02:42:24;;;;;;;2.78;2.13;;;18.00;99.90;;;;;;5042660;28;20285;-65
2021/07/13 02:44:54;;;;;;;3.90;2.10;;;18.00;99.90;;;;;;5034087;28;20343;-65
2021/07/13 02:47:22;;;;;;;4.55;2.17;;;17.90;99.90;;;;;;5050655;28;20670;-66
2021/07/13 02:49:52;;;;;;;2.00;1.85;;;17.90;99.90;;;;;;5050775;28;20296;-66
2021/07/13 02:52:23;;;;;;;4.03;2.13;;;17.80;99.90;;;;;;5051009;28;20228;-66
2021/07/13 02:54:54;;;;;;;6.03;2.05;;;17.70;99.90;;;;;;5050750;28;20208;-66
2021/07/13 02:57:24;;;;;;;3.65;2.30;;;17.60;99.90;;;;;;5050473;28;20339;-66
2021/07/13 02:59:52;;;;;;;3.55;2.00;;;17.60;99.90;;;;;;5050808;28;20209;-66
2021/07/13 03:02:21;;;;;;;4.55;2.20;;;17.50;99.90;;;;;;5049843;28;20324;-66
2021/07/13 03:04:49;;;;;;;4.43;2.85;;;17.50;99.90;;;;;;5050641;28;20206;-66
2021/07/13 03:07:17;;;;;;;2.88;2.55;;;17.50;99.90;;;;;;5050354;28;20275;-66
2021/07/13 03:09:47;;;;;;;2.50;2.30;;;17.50;99.90;;;;;;5050629;28;20303;-66
2021/07/13 03:12:15;;;;;;;2.30;2.10;;;17.50;99.90;;;;;;5050455;28;20292;-66
2021/07/13 03:14:44;;;;;;;2.70;2.50;;;17.50;99.90;;;;;;5050336;28;20204;-66
2021/07/13 03:17:12;;;;;;;2.72;2.53;;;17.50;99.90;;;;;;5049980;28;20801;-66
2021/07/13 03:19:40;;;;;;;4.40;2.30;;;17.50;99.90;;;;;;5049826;28;20209;-66
2021/07/13 03:22:14;;;;;;;2.95;1.90;;;17.50;99.90;;;;;;5050397;28;20233;-66
2021/07/13 03:24:42;;;;;;;2.90;2.45;;;17.50;99.90;;;;;;5049913;28;20212;-65
2021/07/13 03:27:12;;;;;;;2.60;2.40;;;17.50;99.90;;;;;;5050244;28;20205;-66
2021/07/13 03:29:41;;;;;;;3.35;2.63;;;17.40;99.90;;;;;;5050216;28;20213;-66
2021/07/13 03:32:08;;;;;;;4.15;2.78;;;17.40;99.90;;;;;;5049046;28;20206;-66
2021/07/13 03:34:36;;;;;;;4.10;3.72;;;17.40;99.90;;;;;;5049722;28;20296;-67
2021/07/13 03:37:03;;;;;;;5.25;3.40;;;17.40;99.90;;;;;;5049270;28;20238;-66
2021/07/13 03:39:30;;;;;;;6.05;3.25;;;17.40;99.90;;;;;;5049793;28;20780;-66
2021/07/13 03:41:58;;;;;;;4.10;3.70;;;17.40;99.90;;;;;;5049322;28;20202;-66
2021/07/13 03:44:26;;;;;;;3.90;3.00;;;17.50;99.90;;;;;;5034376;28;20756;-66
2021/07/13 03:46:53;;;;;;;5.97;3.65;;;17.60;99.90;;;;;;5049356;28;20204;-66
2021/07/13 03:49:24;;;;;;;4.25;3.85;;;17.60;99.90;;;;;;5049937;28;20206;-66
2021/07/13 03:51:51;;;;;;;5.03;3.95;;;17.60;99.90;;;;;;5050150;28;20652;-66
2021/07/13 03:54:20;;;;;;;4.20;3.90;;;17.60;99.90;;;;;;5048990;28;20212;-66
2021/07/13 03:56:49;;;;;;;4.38;3.97;;;17.60;99.90;;;;;;5049406;28;20263;-66
2021/07/13 03:59:17;;;;;;;4.32;4.03;;;17.60;99.90;;;;;;5049468;28;20256;-66
2021/07/13 04:01:45;;;;;;;4.28;3.97;;;17.60;99.90;;;;;;5049201;28;20216;-66
2021/07/13 04:04:12;;;;;;;4.25;3.95;;;17.50;99.90;;;;;;5049094;28;20225;-66
2021/07/13 04:06:39;;;;;;;4.95;4.10;;;17.40;99.90;;;;;;5048972;28;20209;-66
2021/07/13 04:09:08;;;;;;;5.70;4.47;;;17.30;99.90;;;;;;5048379;28;20201;-65
2021/07/13 04:11:35;;;;;;;4.85;4.55;;;17.30;99.90;;;;;;5048503;28;20214;-66
2021/07/13 04:14:02;;;;;;;5.20;4.80;;;17.40;99.90;;;;;;5049042;28;20296;-66
2021/07/13 04:16:30;;;;;;;5.00;4.60;;;17.40;99.90;;;;;;5048876;28;20232;-66
2021/07/13 04:18:59;;;;;;;5.20;4.80;;;17.40;99.90;;;;;;5048948;28;20205;-66
2021/07/13 04:21:26;;;;;;;5.32;4.28;;;17.40;99.90;;;;;;5049454;28;20214;-66
2021/07/13 04:23:53;;;;;;;4.97;4.57;;;17.50;99.90;;;;;;5048889;28;20284;-65
2021/07/13 04:26:20;;;;;;;4.13;3.75;;;17.60;99.90;;;;;;5048929;28;20209;-65
2021/07/13 04:28:46;;;;;;;4.93;4.22;;;17.60;99.90;;;;;;5049162;28;20214;-65
2021/07/13 04:31:13;;;;;;;4.95;4.65;;;17.70;99.90;;;;;;5048908;28;20207;-65
2021/07/13 04:33:40;;;;;;;6.50;4.50;;;17.80;99.90;;;;;;5049073;28;20685;-66
2021/07/13 04:36:08;;;;;;;6.25;5.20;;;17.80;99.90;;;;;;5048659;28;20210;-66
2021/07/13 04:38:35;;;;;;;4.30;3.90;;;17.90;99.90;;;;;;5049005;28;20212;-66
2021/07/13 04:41:02;;;;;;;4.50;4.20;;;18.10;99.90;;;;;;5048906;28;20201;-66
2021/07/13 04:43:29;;;;;;;4.03;3.72;;;18.30;99.90;;;;;;5044161;28;20301;-65
2021/07/13 04:45:56;;;;;;;4.05;3.65;;;18.50;99.90;;;;;;5047899;28;20281;-65
2021/07/13 04:48:22;;;;;;;4.45;3.63;;;18.50;99.90;;;;;;5048730;28;20633;-65
2021/07/13 04:50:49;;;;;;;3.33;3.13;;;18.50;99.90;;;;;;5048773;28;20210;-66
2021/07/13 04:53:17;;;;;;;2.83;2.70;;;18.40;99.90;;;;;;5048432;28;20292;-66
2021/07/13 04:55:44;;;;;;;3.63;3.30;;;18.30;99.90;;;;;;5048200;28;20210;-66
2021/07/13 04:58:11;;;;;;;2.83;2.70;;;18.20;99.90;;;;;;5048576;28;20233;-66
2021/07/13 05:00:38;;;;;;;4.15;2.92;;;18.20;99.90;;;;;;5047196;28;20201;-65
2021/07/13 05:03:05;;;;;;;2.95;2.80;;;18.30;99.90;;;;;;5047577;28;20777;-65
2021/07/13 05:05:32;;;;;;;4.40;2.97;;;18.50;99.90;;;;;;5047554;28;20233;-65
2021/07/13 05:07:58;;;;;;;3.00;2.80;;;18.60;99.90;;;;;;5048275;28;20763;-66
2021/07/13 05:10:26;;;;;;;2.58;2.42;;;18.70;99.90;;;;;;5048120;28;20671;-65
2021/07/13 05:12:53;;;;;;;1.90;1.80;;;19.10;99.90;;;;;;5048343;28;20684;-66
2021/07/13 05:15:20;;;;;;;2.03;1.93;;;20.10;99.90;;;;;;5047739;28;20711;-66
2021/07/13 05:17:47;;;;;;;2.63;2.40;;;21.70;99.90;;;;;;5047623;28;20675;-66
2021/07/13 05:20:15;;;;;;;1.60;1.37;;;22.60;99.90;;;;;;5047938;28;20620;-66
2021/07/13 05:22:42;;;;;;;1.80;1.70;;;24.10;99.90;;;;;;5056165;22;20628;-67
2021/07/13 05:25:11;;;;;;;1.53;1.40;;;25.90;99.90;;;;;;5067472;28;20745;-67
2021/07/13 05:27:41;;;;;;;1.50;1.40;;;27.10;99.10;;;;;;5076505;22;20998;-66
2021/07/13 05:30:10;;;;;;;1.50;1.40;;;27.40;96.50;;;;;;5047562;28;20656;-66
2021/07/13 05:32:37;;;;;;;2.20;1.40;;;26.90;96.20;;;;;;5047721;28;21061;-66
2021/07/13 05:35:05;;;;;;;1.60;1.50;;;26.10;96.90;;;;;;5046075;28;20674;-65
2021/07/13 05:37:33;;;;;;;1.90;1.80;;;24.80;98.90;;;;;;5046657;28;20680;-66
2021/07/13 05:40:02;;;;;;;1.80;1.40;;;23.70;99.90;;;;;;5046899;28;20608;-66
2021/07/13 05:42:34;;;;;;;1.83;1.77;;;23.10;99.90;;;;;;5032570;28;21309;-65
2021/07/13 05:45:04;;;;;;;1.93;1.80;;;22.50;99.90;;;;;;5035205;28;20698;-66
2021/07/13 05:47:34;;;;;;;1.73;1.50;;;22.10;99.90;;;;;;5040051;28;20641;-65
2021/07/13 05:50:02;;;;;;;1.80;1.70;;;21.60;99.90;;;;;;5047346;28;20632;-65
2021/07/13 05:52:31;;;;;;;3.33;2.13;;;21.00;99.90;;;;;;5044310;28;20686;-65
2021/07/13 05:55:00;;;;;;;2.77;1.97;;;20.60;99.90;;;;;;5045385;28;20644;-65
2021/07/13 05:57:27;;;;;;;2.13;1.93;;;20.40;99.90;;;;;;5044429;28;20686;-65
2021/07/13 05:59:55;;;;;;;3.17;2.30;;;20.10;99.90;;;;;;5039945;28;20625;-66
2021/07/13 06:02:23;;;;;;;6.63;2.53;;;19.90;99.90;;;;;;5045598;28;20632;-65
2021/07/13 06:04:50;;;;;;;2.73;2.53;;;19.80;99.90;;;;;;5040746;28;20722;-64
2021/07/13 06:07:17;;;;;;;3.20;2.90;;;19.60;99.90;;;;;;5042262;28;20656;-65
2021/07/13 06:09:44;;;;;;;2.90;2.70;;;19.50;99.90;;;;;;5045262;28;20721;-65
2021/07/13 06:12:11;;;;;;;2.70;2.50;;;19.40;99.90;;;;;;5045677;28;20660;-65
2021/07/13 06:14:38;;;;;;;3.40;3.20;;;19.30;99.90;;;;;;5046173;28;20713;-66
2021/07/13 06:17:06;;;;;;;3.50;3.20;;;19.30;99.90;;;;;;5043724;28;21317;-64
2021/07/13 06:19:35;;;;;;;4.20;3.70;;;19.20;99.90;;;;;;5038949;28;20675;-65
2021/07/13 06:22:02;;;;;;;5.63;3.40;;;19.20;99.90;;;;;;5040752;28;20628;-64
2021/07/13 06:24:29;;;;;;;3.70;3.40;;;19.20;99.90;;;;;;5040236;28;20643;-64
2021/07/13 06:26:56;;;;;;;4.80;4.40;;;19.20;99.90;;;;;;5038647;28;20641;-64
2021/07/13 06:29:23;;;;;;;4.57;3.93;;;19.20;99.90;;;;;;5033860;28;20664;-64
2021/07/13 06:31:51;;;;;;;5.10;4.60;;;19.20;99.90;;;;;;5044475;28;20624;-64
2021/07/13 06:34:18;;;;;;;4.70;4.40;;;19.20;99.90;;;;;;5037889;28;20684;-64
2021/07/13 06:36:46;;;;;;;5.40;4.87;;;19.20;99.90;;;;;;5041603;28;20628;-64
2021/07/13 06:39:14;;;;;;;4.80;4.40;;;19.20;99.90;;;;;;5043201;28;20648;-64
2021/07/13 06:41:41;;;;;;;5.43;4.93;;;19.20;99.90;;;;;;5045005;28;20628;-64
2021/07/13 06:44:10;;;;;;;5.90;5.40;;;19.30;99.90;;;;;;5042803;22;20684;-66
2021/07/13 06:46:36;;;;;;;5.70;5.30;;;19.30;99.90;;;;;;5044199;28;20640;-66
2021/07/13 06:49:04;;;;;;;5.27;4.80;;;19.40;99.90;;;;;;5051301;22;21284;-64
2021/07/13 06:51:31;;;;;;;6.20;5.53;;;19.40;99.90;;;;;;5045009;28;20647;-64
2021/07/13 06:53:59;;;;;;;6.33;5.73;;;19.40;99.90;;;;;;5039006;28;20624;-65
2021/07/13 06:56:26;;;;;;;5.60;5.10;;;19.30;99.90;;;;;;5042151;28;20646;-65
2021/07/13 06:58:53;;;;;;;4.60;4.20;;;19.30;99.90;;;;;;5035778;28;20788;-64
2021/07/13 07:01:20;;;;;;;5.20;4.70;;;19.20;99.90;;;;;;5039122;28;20636;-64
2021/07/13 07:03:46;;;;;;;5.20;4.90;;;19.10;99.90;;;;;;5040564;28;21182;-64
2021/07/13 07:06:13;;;;;;;5.47;4.97;;;19.00;99.90;;;;;;5041810;28;20624;-65
2021/07/13 07:08:40;;;;;;;5.00;4.63;;;18.90;99.90;;;;;;5048049;23;21107;-66
2021/07/13 07:11:08;;;;;;;5.80;5.17;;;18.80;99.90;;;;;;5064395;28;20631;-66
2021/07/13 07:13:35;;;;;;;6.47;5.57;;;18.80;99.90;;;;;;5052854;22;20725;-65
2021/07/13 07:16:02;;;;;;;5.87;5.37;;;18.90;99.90;;;;;;5000668;28;21055;-65
2021/07/13 07:18:29;;;;;;;5.20;4.80;;;18.80;99.90;;;;;;5003807;28;21478;-65
2021/07/13 07:20:56;;;;;;;7.23;4.87;;;18.80;99.90;;;;;;5005918;28;20630;-65
2021/07/13 07:23:22;;;;;;;5.77;5.27;;;18.90;99.90;;;;;;4998525;28;20630;-65
2021/07/13 07:25:50;;;;;;;6.70;6.10;;;18.80;99.90;;;;;;4998267;28;20637;-65
2021/07/13 07:28:19;;;;;;;5.80;5.40;;;18.70;99.90;;;;;;5001738;28;20261;-65
2021/07/13 07:30:46;;;;;;;6.88;6.38;;;18.60;99.90;;;;;;5001176;28;20637;-65
2021/07/13 07:33:12;;;;;;;7.45;5.78;;;18.50;99.90;;;;;;5003520;28;20214;-65
2021/07/13 07:35:39;;;;;;;6.70;6.10;;;18.50;99.90;;;;;;5006007;28;20199;-64
2021/07/13 07:38:06;;;;;;;7.10;6.50;;;18.50;99.90;;;;;;5001091;28;20688;-65
2021/07/13 07:40:33;;;;;;;7.40;6.80;;;18.50;99.90;;;;;;5003566;28;20209;-65
2021/07/13 07:43:00;;;;;;;7.10;6.60;;;18.50;99.90;;;;;;5001468;28;20213;-66
2021/07/13 07:45:29;;;;;;;7.03;6.32;;;18.50;99.90;;;;;;5003340;28;20199;-66
2021/07/13 07:47:56;;;;;;;7.80;7.10;;;18.40;99.90;;;;;;5002803;28;20207;-66
2021/07/13 07:50:24;;;;;;;7.18;6.55;;;18.40;99.90;;;;;;5006172;28;20229;-66
2021/07/13 07:52:52;;;;;;;7.80;7.10;;;18.40;99.90;;;;;;5004069;28;20239;-66
2021/07/13 07:55:21;;;;;;;7.47;6.78;;;18.40;99.90;;;;;;5002566;28;20635;-66
2021/07/13 07:57:48;;;;;;;8.75;7.50;;;18.50;99.90;;;;;;5002811;28;20237;-65
2021/07/13 08:00:17;;;;;;;8.32;7.43;;;18.50;99.90;;;;;;5050986;23;20233;-67
2021/07/13 08:02:45;;;;;;;9.32;8.52;;;18.60;99.90;;;;;;5040453;28;20229;-67
2021/07/13 08:05:14;;;;;;;9.27;8.47;;;18.80;99.90;;;;;;5051405;22;20269;-65
2021/07/13 08:07:41;;;;;;;9.23;8.35;;;18.90;99.90;;;;;;5047962;28;20644;-65
2021/07/13 08:10:10;;;;;;;8.38;7.68;;;19.00;99.90;;;;;;5040320;28;20212;-66
2021/07/13 08:12:37;;;;;;;8.10;7.40;;;19.00;99.90;;;;;;5044021;28;20210;-66
2021/07/13 08:15:05;;;;;;;8.70;7.80;;;19.10;99.90;;;;;;5045587;28;21223;-66
2021/07/13 08:17:31;;;;;;;9.20;8.40;;;19.20;99.90;;;;;;5040000;28;20675;-66
2021/07/13 08:20:00;;;;;;;10.07;8.20;;;19.20;99.90;;;;;;5049460;22;20794;-67
2021/07/13 08:22:26;;;;;;;8.50;7.70;;;19.20;99.90;;;;;;5047045;28;20634;-67
2021/07/13 08:24:53;;;;;;;13.80;8.20;;;19.20;99.90;;;;;;5052278;23;20786;-66
2021/07/13 08:27:20;;;;;;;9.23;8.10;;;19.30;99.90;;;;;;5047432;28;21063;-66
2021/07/13 08:29:47;;;;;;;7.33;6.73;;;19.40;99.90;;;;;;5048010;28;20628;-66
2021/07/13 08:32:14;;;;;;;7.30;6.60;;;19.40;99.90;;;;;;5046472;28;20999;-66
2021/07/13 08:34:41;;;;;;;8.47;7.77;;;19.40;99.90;;;;;;5046943;28;20640;-66
2021/07/13 08:37:09;;;;;;;8.00;7.20;;;19.20;99.90;;;;;;5046166;28;21000;-66
2021/07/13 08:39:36;;;;;;;9.00;8.20;;;19.20;99.90;;;;;;5046473;28;20675;-66
2021/07/13 08:42:03;;;;;;;7.60;6.90;;;19.10;99.90;;;;;;5041146;28;20635;-66
2021/07/13 08:44:31;;;;;;;7.50;6.80;;;19.10;99.90;;;;;;5046024;28;20642;-66
2021/07/13 08:47:00;;;;;;;7.07;6.43;;;19.10;99.90;;;;;;5047245;28;20202;-65
2021/07/13 08:49:27;;;;;;;7.47;6.77;;;19.20;99.90;;;;;;5047060;28;20824;-65
2021/07/13 08:51:54;;;;;;;7.53;6.77;;;19.20;99.90;;;;;;5045044;28;20624;-65
2021/07/13 08:54:23;;;;;;;7.23;6.60;;;19.10;99.90;;;;;;5046764;28;20660;-65
2021/07/13 08:56:50;;;;;;;7.23;6.10;;;19.10;99.90;;;;;;5046296;28;21032;-66
2021/07/13 08:59:17;;;;;;;7.20;6.50;;;19.10;99.90;;;;;;5047141;28;20683;-66
2021/07/13 09:01:44;;;;;;;7.57;6.97;;;19.10;99.90;;;;;;5047035;28;20619;-66
2021/07/13 09:04:14;;;;;;;8.43;5.57;;;19.20;99.90;;;;;;5046905;28;20745;-66
2021/07/13 09:06:54;;;;;;;7.53;6.73;;;19.20;99.90;;;;;;5045447;28;20638;-65
2021/07/13 09:09:31;;;;;;;7.33;6.63;;;19.30;99.90;;;;;;5046586;28;20635;-65
2021/07/13 09:12:16;;;;;;;6.17;5.57;;;19.30;99.90;;;;;;5045862;28;21207;-66
2021/07/13 09:14:51;;;;;;;6.30;5.80;;;19.20;99.90;;;;;;5040200;28;20662;-66
2021/07/13 09:17:37;;;;;;;6.07;5.50;;;19.20;99.90;;;;;;5039950;28;20659;-66
2021/07/13 09:20:12;;;;;;;6.57;5.97;;;19.10;99.90;;;;;;5046180;28;20698;-66
2021/07/13 09:22:41;;;;;;;5.43;5.03;;;19.10;99.90;;;;;;5044136;28;21241;-66
2021/07/13 09:25:30;;;;;;;6.47;5.57;;;19.00;99.90;;;;;;5044696;28;20739;-66
2021/07/13 09:28:16;;;;;;;5.87;5.37;;;18.90;99.90;;;;;;5047583;28;20646;-66
2021/07/13 09:30:46;;;;;;;4.53;4.13;;;18.80;99.90;;;;;;5040690;28;20624;-65
2021/07/13 09:33:15;;;;;;;6.80;4.40;;;18.80;99.90;;;;;;5047049;28;20620;-66
2021/07/13 09:35:58;;;;;;;4.00;3.70;;;18.80;99.90;;;;;;5046472;28;21165;-66
2021/07/13 09:38:25;;;;;;;1.08;0.60;;;18.70;99.90;;;;;;5046071;28;20675;-66
2021/07/13 09:41:02;;;;;;;2.35;1.00;;;18.40;99.90;;;;;;5039805;28;20691;-65
2021/07/13 09:43:43;;;;;;;0.80;0.80;;;18.20;99.90;;;;;;5047471;28;20297;-65
2021/07/13 09:46:31;;;;;;;0.75;0.68;;;17.90;99.90;;;;;;5044919;28;20201;-65
2021/07/13 09:49:24;;;;;;;0.60;0.60;;;17.80;99.90;;;;;;5045495;23;20733;-67
2021/07/13 09:51:57;;;;;;;1.23;0.73;;;17.60;99.90;;;;;;5026122;28;20208;-67
2021/07/13 09:54:38;;;;;;;0.50;0.50;;;17.50;99.90;;;;;;5038040;22;20237;-65
2021/07/13 09:57:09;;;;;;;1.67;0.68;;;17.50;99.90;;;;;;5042343;28;20908;-66
2021/07/13 09:59:36;;;;;;;0.43;0.43;;;17.40;99.90;;;;;;5030780;28;20721;-66
2021/07/13 10:02:09;;;;;;;2.38;0.50;;;17.40;99.90;;;;;;5036423;28;20774;-65
2021/07/13 10:04:38;;;;;;;2.45;0.63;;;17.40;99.90;;;;;;5045388;28;20197;-65
2021/07/13 10:07:08;;;;;;;0.47;0.47;;;17.40;99.90;;;;;;5045361;28;20201;-66
2021/07/13 10:09:39;;;;;;;1.67;0.68;;;17.40;99.90;;;;;;5043406;28;20228;-65
2021/07/13 10:12:15;;;;;;;0.40;0.40;;;17.60;99.90;;;;;;5043343;28;20666;-65
2021/07/13 10:14:44;;;;;;;1.20;0.40;;;17.90;99.90;;;;;;5028957;28;20201;-65
2021/07/13 10:17:12;;;;;;;0.50;0.40;;;18.00;99.90;;;;;;5043185;28;20783;-65
2021/07/13 10:19:51;;;;;;;0.85;0.52;;;18.00;99.90;;;;;;5038957;28;20327;-65
2021/07/13 10:22:21;;;;;;;0.50;0.50;;;18.10;99.90;;;;;;5041270;28;20288;-66
2021/07/13 10:24:51;;;;;;;2.00;0.70;;;18.10;99.90;;;;;;5042763;28;20659;-66
2021/07/13 10:27:28;;;;;;;0.95;0.40;;;18.10;99.90;;;;;;5045324;28;20545;-65
2021/07/13 10:29:56;;;;;;;0.60;0.60;;;18.10;99.90;;;;;;5038198;28;20208;-64
2021/07/13 10:32:43;;;;;;;0.55;0.35;;;18.10;99.90;;;;;;5040615;28;20209;-64
2021/07/13 10:35:26;;;;;;;0.40;0.40;;;18.00;99.90;;;;;;5042856;28;20228;-64
2021/07/13 10:37:55;;;;;;;0.32;0.32;;;18.00;99.90;;;;;;5037275;28;20572;-65
2021/07/13 10:40:41;;;;;;;0.50;0.30;;;17.70;99.90;;;;;;5043848;28;20204;-66
2021/07/13 10:43:17;;;;;;;0.50;0.50;;;17.50;99.90;;;;;;5049106;28;20193;-65
2021/07/13 10:45:46;;;;;;;1.88;0.20;;;17.20;99.90;;;;;;5050580;28;20201;-66
2021/07/13 10:48:15;;;;;;;0.75;0.30;;;17.00;99.90;;;;;;5045649;28;20201;-65
2021/07/13 10:50:53;;;;;;;0.60;0.30;;;16.80;99.90;;;;;;5015300;23;20715;-67
2021/07/13 10:53:26;;;;;;;0.38;0.38;;;16.60;99.90;;;;;;5002636;28;20239;-66
2021/07/13 10:56:01;;;;;;;0.40;0.35;;;16.50;99.90;;;;;;5003749;28;20301;-68
2021/07/13 10:58:48;;;;;;;0.60;0.50;;;16.50;99.90;;;;;;5014329;23;20238;-65
2021/07/13 11:01:22;;;;;;;0.40;0.40;;;16.50;99.90;;;;;;4979456;28;20222;-66
2021/07/13 11:04:07;;;;;;;0.40;0.40;;;16.60;99.90;;;;;;4976751;28;20237;-66
2021/07/13 11:06:56;;;;;;;1.95;0.40;;;16.80;99.90;;;;;;4990553;28;20204;-66
2021/07/13 11:09:35;;;;;;;1.60;0.35;;;17.40;99.90;;;;;;4984129;28;20203;-66
2021/07/13 11:12:16;;;;;;;0.40;0.20;;;18.00;99.90;;;;;;4990287;28;20219;-66
2021/07/13 11:15:06;;;;;;;2.05;0.40;;;18.40;99.90;;;;;;4988240;28;20668;-66
2021/07/13 11:17:34;;;;;;;1.05;0.40;;;18.40;99.90;;;;;;4992305;28;20215;-66
2021/07/13 11:20:08;;;;;;;0.70;0.30;;;18.40;99.90;;;;;;4992322;28;20738;-66
2021/07/13 11:22:36;;;;;;;0.50;0.50;;;18.40;99.90;;;;;;4990223;28;20207;-66
2021/07/13 11:25:04;;;;;;;1.30;0.40;;;18.30;99.90;;;;;;4990032;28;20207;-66
2021/07/13 11:27:31;;;;;;;0.40;0.40;;;18.10;99.90;;;;;;4990424;28;20200;-64
2021/07/13 11:29:58;;;;;;;0.60;0.40;;;18.10;99.90;;;;;;4990567;28;20204;-65
2021/07/13 11:32:27;;;;;;;3.63;0.50;;;18.00;99.90;;;;;;4995069;28;20668;-66
2021/07/13 11:34:53;;;;;;;0.75;0.50;;;17.90;99.90;;;;;;4981609;28;20210;-66
2021/07/13 11:37:24;;;;;;;0.43;0.40;;;17.70;99.90;;;;;;4989320;28;20282;-67
2021/07/13 11:39:52;;;;;;;0.45;0.45;;;17.60;99.90;;;;;;5026485;22;20230;-67
2021/07/13 11:42:18;;;;;;;0.47;0.47;;;17.60;99.90;;;;;;5044989;28;20253;-68
2021/07/13 11:44:50;;;;;;;0.40;0.40;;;17.50;99.90;;;;;;5048670;28;20622;-67
2021/07/13 11:47:17;;;;;;;0.65;0.65;;;17.50;99.90;;;;;;5041454;28;20230;-68
2021/07/13 11:49:46;;;;;;;0.73;0.45;;;17.50;99.90;;;;;;5053399;23;20318;-65
2021/07/13 11:52:15;;;;;;;0.60;0.60;;;17.40;99.90;;;;;;5049055;28;20209;-65
2021/07/13 11:54:43;;;;;;;0.55;0.47;;;17.50;99.90;;;;;;5046530;28;20675;-66
2021/07/13 11:57:18;;;;;;;1.30;0.50;;;17.60;99.90;;;;;;5034904;28;20193;-66
2021/07/13 11:59:46;;;;;;;1.98;0.70;;;17.70;99.90;;;;;;5043134;28;20236;-65
2021/07/13 12:02:14;;;;;;;0.60;0.50;;;17.90;99.90;;;;;;5047788;28;20644;-66
2021/07/13 12:04:44;;;;;;;0.30;0.30;;;18.10;99.90;;;;;;5047118;28;20279;-67
2021/07/13 12:07:12;;;;;;;0.50;0.50;;;18.30;99.90;;;;;;5046957;28;20590;-66
2021/07/13 12:09:40;;;;;;;1.50;0.50;;;18.30;99.90;;;;;;5048239;28;20297;-66
2021/07/13 12:12:09;;;;;;;0.50;0.40;;;18.40;99.90;;;;;;5046328;28;20202;-66
2021/07/13 12:14:37;;;;;;;0.45;0.40;;;18.40;99.90;;;;;;5048066;28;20209;-66
2021/07/13 12:17:06;;;;;;;1.10;0.60;;;18.30;99.90;;;;;;5043083;28;20202;-65
2021/07/13 12:19:34;;;;;;;0.63;0.63;;;18.30;99.90;;;;;;5047845;28;20229;-66
2021/07/13 12:22:04;;;;;;;0.82;0.60;;;18.40;99.90;;;;;;5047876;28;20214;-65
2021/07/13 12:24:34;;;;;;;1.23;0.65;;;18.50;99.90;;;;;;5041157;28;20206;-65
2021/07/13 12:27:04;;;;;;;1.17;0.40;;;18.60;99.90;;;;;;5043128;28;20295;-64
2021/07/13 12:29:39;;;;;;;0.70;0.53;;;18.90;99.90;;;;;;5037524;28;20740;-64
2021/07/13 12:32:09;;;;;;;1.03;0.30;;;18.80;99.90;;;;;;5043119;28;20641;-66
2021/07/13 12:34:41;;;;;;;1.37;0.30;;;18.90;99.90;;;;;;5038263;28;20739;-67
2021/07/13 12:37:14;;;;;;;0.70;0.70;;;19.00;99.90;;;;;;5046235;28;20725;-66
2021/07/13 12:39:49;;;;;;;0.70;0.40;;;19.00;99.90;;;;;;5038667;28;20680;-66
2021/07/13 12:42:23;;;;;;;0.40;0.40;;;19.10;99.90;;;;;;5043382;28;20611;-64
2021/07/13 12:44:51;;;;;;;0.80;0.70;;;19.10;99.90;;;;;;5054261;28;20630;-65
2021/07/13 12:47:27;;;;;;;0.63;0.40;;;18.90;99.90;;;;;;5049899;28;21359;-65
2021/07/13 12:50:10;;;;;;;0.70;0.40;;;19.00;99.90;;;;;;5042777;28;21212;-66
2021/07/13 12:52:39;;;;;;;1.47;0.47;;;18.90;99.90;;;;;;5045927;28;20635;-65
2021/07/13 12:55:10;;;;;;;0.97;0.50;;;18.90;99.90;;;;;;5064282;22;20675;-65
2021/07/13 12:57:39;;;;;;;0.67;0.67;;;19.00;99.90;;;;;;5067658;28;20658;-66
2021/07/13 13:00:13;;;;;;;1.57;0.40;;;19.10;99.90;;;;;;5063016;22;20738;-65
2021/07/13 13:02:41;;;;;;;0.60;0.60;;;19.20;99.90;;;;;;5042770;28;20628;-66